Time;durP1;ratioP1;P1;durP2;ratioP2;P2;SDS_P1;SDS_P2;PMS_P1;PMS_P2;Temp;Humidity;BMP_temperature;BMP_pressure;BME280_temperature;BME280_humidity;BME280_pressure;Samples;Min_cycle;Max_cycle;Signal;HPM_P1;HPM_P2
2022/01/14 00:00:44;;;;;;;;;;;5.60;99.90;;;;;;5049840;28;20972;-49
2022/01/14 00:03:11;;;;;;;;;;;5.60;99.90;;;;;;5048779;28;19920;-48
2022/01/14 00:05:36;;;;;;;;;;;5.60;99.90;;;;;;5078458;28;20332;-52
2022/01/14 00:08:02;;;;;;;;;;;5.60;99.90;;;;;;5064079;28;19916;-52
2022/01/14 00:10:30;;;;;;;;;;;5.60;99.90;;;;;;5068275;28;19997;-49
2022/01/14 00:13:05;;;;;;;;;;;5.60;99.90;;;;;;5070415;28;20329;-48
2022/01/14 00:15:34;;;;;;;;;;;5.60;99.90;;;;;;5051243;28;19924;-50
2022/01/14 00:18:25;;;;;;;;;;;5.60;99.90;;;;;;5050238;28;19921;-51
2022/01/14 00:20:50;;;;;;;;;;;5.60;99.90;;;;;;5059601;28;20363;-52
2022/01/14 00:23:18;;;;;;;;;;;5.60;99.90;;;;;;5049379;28;20030;-52
2022/01/14 00:31:42;;;;;;;;;;;5.60;99.90;;;;;;5071827;28;19932;-53
2022/01/14 00:34:09;;;;;;;;;;;5.60;99.90;;;;;;5069022;28;19962;-52
2022/01/14 00:36:34;;;;;;;;;;;5.60;99.90;;;;;;5063145;28;20342;-48
2022/01/14 00:39:04;;;;;;;;;;;5.60;99.90;;;;;;5067801;28;19920;-49
2022/01/14 00:41:30;;;;;;;;;;;5.60;99.90;;;;;;5070828;28;20247;-50
2022/01/14 00:44:01;;;;;;;;;;;5.60;99.90;;;;;;5066844;28;19946;-48
2022/01/14 00:46:27;;;;;;;;;;;5.60;99.90;;;;;;5071293;28;19946;-52
2022/01/14 00:48:53;;;;;;;;;;;5.60;99.90;;;;;;5070610;28;19917;-51
2022/01/14 00:51:18;;;;;;;;;;;5.60;99.90;;;;;;5076264;28;20034;-52
2022/01/14 00:53:44;;;;;;;;;;;5.60;99.90;;;;;;5077862;28;19924;-50
2022/01/14 01:01:45;;;;;;;;;;;5.60;99.90;;;;;;5066991;28;19920;-48
2022/01/14 01:04:19;;;;;;;;;;;5.60;99.90;;;;;;5064818;28;20368;-47
2022/01/14 01:06:47;;;;;;;;;;;5.70;99.90;;;;;;5066568;28;20858;-50
2022/01/14 01:09:13;;;;;;;;;;;5.60;99.90;;;;;;5067359;28;19917;-48
2022/01/14 01:11:51;;;;;;;;;;;5.60;99.90;;;;;;5065484;28;19944;-48
2022/01/14 01:14:34;;;;;;;;;;;5.60;99.90;;;;;;5052947;28;19920;-47
2022/01/14 01:17:00;;;;;;;;;;;5.70;99.90;;;;;;5069793;28;19921;-49
2022/01/14 01:19:25;;;;;;;;;;;5.70;99.90;;;;;;5066821;28;19924;-50
2022/01/14 01:21:52;;;;;;;;;;;5.70;99.90;;;;;;5070319;28;20400;-48
2022/01/14 01:24:18;;;;;;;;;;;5.70;99.90;;;;;;5062901;28;19920;-49
2022/01/14 01:26:51;;;;;;;;;;;5.70;99.90;;;;;;5032030;28;20022;-47
2022/01/14 01:31:45;;;;;;;;;;;5.70;99.90;;;;;;5042199;28;19924;-48
2022/01/14 01:34:14;;;;;;;;;;;5.70;99.90;;;;;;5049125;28;19927;-49
2022/01/14 01:36:44;;;;;;;;;;;5.70;99.90;;;;;;5052360;28;19920;-48
2022/01/14 01:39:11;;;;;;;;;;;5.60;99.90;;;;;;5052814;28;19921;-50
2022/01/14 01:42:02;;;;;;;;;;;5.60;99.90;;;;;;5050583;28;19916;-48
2022/01/14 01:44:28;;;;;;;;;;;5.70;99.90;;;;;;5060942;28;19920;-47
2022/01/14 01:46:55;;;;;;;;;;;5.60;99.90;;;;;;5030408;28;19920;-51
2022/01/14 01:49:22;;;;;;;;;;;5.70;99.90;;;;;;5068074;28;19920;-48
2022/01/14 01:51:48;;;;;;;;;;;5.60;99.90;;;;;;5034777;28;19924;-47
2022/01/14 01:54:15;;;;;;;;;;;5.60;99.90;;;;;;5046919;28;20281;-50
2022/01/14 01:56:41;;;;;;;;;;;5.60;99.90;;;;;;5044221;28;20007;-50
2022/01/14 01:59:09;;;;;;;;;;;5.60;99.90;;;;;;5068832;28;19916;-51
2022/01/14 02:01:35;;;;;;;;;;;5.60;99.90;;;;;;5032827;28;19921;-48
2022/01/14 02:04:01;;;;;;;;;;;5.60;99.90;;;;;;5052924;28;19924;-47
2022/01/14 02:06:27;;;;;;;;;;;5.60;99.90;;;;;;5056390;28;19924;-50
2022/01/14 02:08:53;;;;;;;;;;;5.70;99.90;;;;;;5043684;28;19924;-48
2022/01/14 02:11:21;;;;;;;;;;;5.60;99.90;;;;;;5065211;28;20405;-51
2022/01/14 02:13:49;;;;;;;;;;;5.60;99.90;;;;;;5066545;28;20061;-51
2022/01/14 02:27:00;;;;;;;;;;;5.60;99.90;;;;;;5064879;28;19920;-48
2022/01/14 02:29:27;;;;;;;;;;;5.70;99.90;;;;;;5051986;28;20491;-51
2022/01/14 02:31:53;;;;;;;;;;;5.70;99.90;;;;;;5047967;28;19923;-51
2022/01/14 02:34:18;;;;;;;;;;;5.70;99.90;;;;;;5065636;28;19916;-48
2022/01/14 02:36:45;;;;;;;;;;;5.70;99.90;;;;;;5033218;28;20006;-50
2022/01/14 02:39:12;;;;;;;;;;;5.70;99.90;;;;;;5050015;28;20668;-47
2022/01/14 02:41:39;;;;;;;;;;;5.70;99.90;;;;;;5068157;28;20519;-52
2022/01/14 02:44:06;;;;;;;;;;;5.70;99.90;;;;;;5045938;28;19932;-49
2022/01/14 02:46:41;;;;;;;;;;;5.70;99.90;;;;;;5049264;28;20015;-52
2022/01/14 02:49:08;;;;;;;;;;;5.70;99.90;;;;;;5051320;28;19920;-52
2022/01/14 02:51:33;;;;;;;;;;;5.70;99.90;;;;;;5066830;28;20409;-52
2022/01/14 02:54:12;;;;;;;;;;;5.70;99.90;;;;;;5030140;28;19959;-49
2022/01/14 02:56:38;;;;;;;;;;;5.70;99.90;;;;;;5052804;28;20003;-52
2022/01/14 02:59:06;;;;;;;;;;;5.70;99.90;;;;;;5066501;28;20255;-50
2022/01/14 03:01:32;;;;;;;;;;;5.70;99.90;;;;;;5049762;28;20023;-50
2022/01/14 03:04:00;;;;;;;;;;;5.70;99.90;;;;;;5071593;28;19966;-48
2022/01/14 03:06:27;;;;;;;;;;;5.70;99.90;;;;;;5037337;28;19924;-50
2022/01/14 03:08:56;;;;;;;;;;;5.70;99.90;;;;;;5053487;28;19920;-48
2022/01/14 03:11:28;;;;;;;;;;;5.70;99.90;;;;;;5037713;28;19916;-47
2022/01/14 03:13:54;;;;;;;;;;;5.70;99.90;;;;;;5068127;28;20267;-49
2022/01/14 03:16:21;;;;;;;;;;;5.70;99.90;;;;;;5051145;28;19927;-48
2022/01/14 03:18:50;;;;;;;;;;;5.70;99.90;;;;;;5055422;28;20258;-49
2022/01/14 03:21:28;;;;;;;;;;;5.70;99.90;;;;;;5068704;28;19916;-48
2022/01/14 03:24:15;;;;;;;;;;;5.70;99.90;;;;;;5071420;28;19928;-48
2022/01/14 03:26:41;;;;;;;;;;;5.70;99.90;;;;;;5092197;28;20006;-49
2022/01/14 03:29:07;;;;;;;;;;;5.70;99.90;;;;;;5091734;28;20458;-49
2022/01/14 03:31:33;;;;;;;;;;;5.80;99.90;;;;;;5069608;28;19963;-48
2022/01/14 03:33:58;;;;;;;;;;;5.80;99.90;;;;;;5073563;28;19916;-48
2022/01/14 03:36:25;;;;;;;;;;;5.70;99.90;;;;;;5079670;28;19928;-47
2022/01/14 03:38:51;;;;;;;;;;;5.80;99.90;;;;;;5089940;28;19920;-50
2022/01/14 03:41:17;;;;;;;;;;;5.80;99.90;;;;;;5089926;28;19922;-50
2022/01/14 03:43:43;;;;;;;;;;;5.80;99.90;;;;;;5074844;28;20621;-49
2022/01/14 03:46:09;;;;;;;;;;;5.70;99.90;;;;;;5067951;28;19980;-49
2022/01/14 03:48:36;;;;;;;;;;;5.80;99.90;;;;;;5080125;28;19927;-52
2022/01/14 03:51:01;;;;;;;;;;;5.80;99.90;;;;;;5100803;27;19931;-50
2022/01/14 03:53:27;;;;;;;;;;;5.80;99.90;;;;;;5088640;27;20231;-49
2022/01/14 03:55:53;;;;;;;;;;;5.90;99.90;;;;;;5094517;28;19927;-48
2022/01/14 03:58:19;;;;;;;;;;;5.80;99.90;;;;;;5089128;28;19920;-48
2022/01/14 04:00:45;;;;;;;;;;;5.80;99.90;;;;;;5086952;28;19984;-52
2022/01/14 04:03:10;;;;;;;;;;;5.80;99.90;;;;;;5091173;28;19929;-50
2022/01/14 04:05:36;;;;;;;;;;;5.90;99.90;;;;;;5073194;28;19919;-50
2022/01/14 04:08:02;;;;;;;;;;;5.80;99.90;;;;;;5088479;28;19927;-48
2022/01/14 04:10:29;;;;;;;;;;;5.80;99.90;;;;;;5055044;28;19977;-49
2022/01/14 04:13:00;;;;;;;;;;;5.80;99.90;;;;;;5071772;28;19925;-50
2022/01/14 04:15:38;;;;;;;;;;;5.80;99.90;;;;;;5091338;28;19921;-48
2022/01/14 04:18:07;;;;;;;;;;;5.80;99.90;;;;;;5058570;28;19916;-49
2022/01/14 04:20:33;;;;;;;;;;;5.80;99.90;;;;;;5071629;28;19924;-47
2022/01/14 04:22:59;;;;;;;;;;;5.70;99.90;;;;;;5054243;28;19928;-52
2022/01/14 04:25:25;;;;;;;;;;;5.70;99.90;;;;;;5068132;28;19932;-51
2022/01/14 04:28:03;;;;;;;;;;;5.70;99.90;;;;;;5067348;28;19966;-51
2022/01/14 04:30:29;;;;;;;;;;;5.70;99.90;;;;;;5046753;28;19920;-47
2022/01/14 04:32:55;;;;;;;;;;;5.60;99.90;;;;;;5067291;28;20286;-51
2022/01/14 04:35:20;;;;;;;;;;;5.60;99.90;;;;;;5047038;28;19924;-48
2022/01/14 04:37:46;;;;;;;;;;;5.60;99.90;;;;;;5064414;28;19986;-48
2022/01/14 04:40:13;;;;;;;;;;;5.50;99.90;;;;;;5067896;28;19924;-48
2022/01/14 04:42:41;;;;;;;;;;;5.50;99.90;;;;;;5049150;28;20031;-48
2022/01/14 04:45:08;;;;;;;;;;;5.60;99.90;;;;;;5048768;28;19927;-47
2022/01/14 04:47:44;;;;;;;;;;;5.50;99.90;;;;;;5084358;28;19920;-49
2022/01/14 04:50:17;;;;;;;;;;;5.50;99.90;;;;;;5049195;28;20711;-47
2022/01/14 04:52:44;;;;;;;;;;;5.50;99.90;;;;;;5050684;28;19916;-49
2022/01/14 04:55:10;;;;;;;;;;;5.50;99.90;;;;;;5066105;28;19975;-48
2022/01/14 04:57:38;;;;;;;;;;;5.50;99.90;;;;;;5081566;28;19916;-48
2022/01/14 05:00:04;;;;;;;;;;;5.50;99.90;;;;;;5054007;28;20402;-49
2022/01/14 05:02:30;;;;;;;;;;;5.50;99.90;;;;;;5049333;28;20014;-47
2022/01/14 05:04:59;;;;;;;;;;;5.60;99.90;;;;;;5047516;28;20010;-48
2022/01/14 05:07:26;;;;;;;;;;;5.50;99.90;;;;;;5048166;28;19966;-51
2022/01/14 05:10:17;;;;;;;;;;;5.60;99.90;;;;;;5067781;28;20024;-49
2022/01/14 05:12:41;;;;;;;;;;;5.60;99.90;;;;;;5049317;28;19920;-52
2022/01/14 05:15:08;;;;;;;;;;;5.50;99.90;;;;;;5049554;28;20008;-52
2022/01/14 05:17:34;;;;;;;;;;;5.60;99.90;;;;;;5065400;28;19939;-51
2022/01/14 05:20:06;;;;;;;;;;;5.60;99.90;;;;;;5035427;28;20464;-49
2022/01/14 05:22:35;;;;;;;;;;;5.60;99.90;;;;;;5066275;28;19926;-50
2022/01/14 05:25:01;;;;;;;;;;;5.70;99.90;;;;;;5059692;28;19931;-52
2022/01/14 05:27:27;;;;;;;;;;;5.70;99.90;;;;;;5066567;28;20015;-47
2022/01/14 05:29:53;;;;;;;;;;;5.70;99.90;;;;;;5065687;28;20046;-48
2022/01/14 05:32:20;;;;;;;;;;;5.70;99.90;;;;;;5050919;28;19925;-47
2022/01/14 05:34:46;;;;;;;;;;;5.70;99.90;;;;;;5064118;28;19917;-51
2022/01/14 05:37:12;;;;;;;;;;;5.70;99.90;;;;;;5066100;28;19920;-49
2022/01/14 05:39:39;;;;;;;;;;;5.70;99.90;;;;;;5048294;28;19930;-48
2022/01/14 05:42:05;;;;;;;;;;;5.70;99.90;;;;;;5068801;28;19920;-49
2022/01/14 05:44:32;;;;;;;;;;;5.80;99.90;;;;;;5069161;28;19924;-47
2022/01/14 05:46:58;;;;;;;;;;;5.70;99.90;;;;;;5082030;28;19916;-48
2022/01/14 05:49:25;;;;;;;;;;;5.70;99.90;;;;;;5067065;28;19924;-49
2022/01/14 05:51:56;;;;;;;;;;;5.70;99.90;;;;;;5066004;28;19923;-50
2022/01/14 05:54:22;;;;;;;;;;;5.70;99.90;;;;;;5065329;28;19917;-51
2022/01/14 05:56:48;;;;;;;;;;;5.70;99.90;;;;;;5058171;28;19916;-50
2022/01/14 05:59:14;;;;;;;;;;;5.70;99.90;;;;;;5062200;28;20623;-49
2022/01/14 06:01:40;;;;;;;;;;;5.80;99.90;;;;;;5108186;28;20419;-51
2022/01/14 06:04:07;;;;;;;;;;;5.80;99.90;;;;;;5065726;28;19921;-51
2022/01/14 06:06:33;;;;;;;;;;;5.70;99.90;;;;;;5066929;28;20231;-50
2022/01/14 06:08:59;;;;;;;;;;;5.80;99.90;;;;;;5066817;28;19920;-48
2022/01/14 06:11:25;;;;;;;;;;;5.70;99.90;;;;;;5068529;28;19978;-47
2022/01/14 06:13:51;;;;;;;;;;;5.70;99.90;;;;;;5067718;28;19920;-48
2022/01/14 06:16:17;;;;;;;;;;;5.70;99.90;;;;;;5045778;28;19943;-47
2022/01/14 06:18:43;;;;;;;;;;;5.80;99.90;;;;;;5063746;28;19925;-48
2022/01/14 06:21:10;;;;;;;;;;;5.70;99.90;;;;;;5064280;28;19923;-48
2022/01/14 06:23:36;;;;;;;;;;;5.70;99.90;;;;;;5064627;28;19955;-50
2022/01/14 06:26:02;;;;;;;;;;;5.70;99.90;;;;;;5082289;28;19963;-47
2022/01/14 06:28:28;;;;;;;;;;;5.70;99.90;;;;;;5085807;28;19916;-50
2022/01/14 06:30:54;;;;;;;;;;;5.70;99.90;;;;;;5085963;28;19916;-49
2022/01/14 06:33:19;;;;;;;;;;;5.80;99.90;;;;;;5085787;28;19931;-50
2022/01/14 06:35:45;;;;;;;;;;;5.70;99.90;;;;;;5102815;28;19963;-49
2022/01/14 06:38:11;;;;;;;;;;;5.70;99.90;;;;;;5087401;28;20316;-49
2022/01/14 06:40:37;;;;;;;;;;;5.70;99.90;;;;;;5072571;28;19932;-50
2022/01/14 06:43:04;;;;;;;;;;;5.70;99.90;;;;;;5070597;28;19920;-48
2022/01/14 06:45:30;;;;;;;;;;;5.70;99.90;;;;;;5071741;28;19916;-48
2022/01/14 06:47:56;;;;;;;;;;;5.70;99.90;;;;;;5072940;28;19939;-47
2022/01/14 06:50:22;;;;;;;;;;;5.70;99.90;;;;;;5087241;28;19924;-46
2022/01/14 06:52:48;;;;;;;;;;;5.80;99.90;;;;;;5107077;28;19916;-51
2022/01/14 06:55:13;;;;;;;;;;;5.80;99.90;;;;;;5071776;28;20457;-49
2022/01/14 06:57:40;;;;;;;;;;;5.80;99.90;;;;;;5074239;28;19966;-49
2022/01/14 07:00:10;;;;;;;;;;;5.80;99.90;;;;;;5087491;28;19965;-50
2022/01/14 07:02:36;;;;;;;;;;;5.80;99.90;;;;;;5085129;28;19928;-47
2022/01/14 07:05:03;;;;;;;;;;;5.80;99.90;;;;;;5088407;28;19974;-50
2022/01/14 07:07:29;;;;;;;;;;;5.80;99.90;;;;;;5086900;28;20453;-48
2022/01/14 07:09:56;;;;;;;;;;;5.80;99.90;;;;;;5068404;28;19958;-49
2022/01/14 07:12:43;;;;;;;;;;;5.80;99.90;;;;;;5064026;28;19927;-49
2022/01/14 07:15:10;;;;;;;;;;;5.80;99.90;;;;;;5084636;28;19955;-48
2022/01/14 07:17:36;;;;;;;;;;;5.80;99.90;;;;;;5058251;28;20005;-51
2022/01/14 07:20:07;;;;;;;;;;;5.90;99.90;;;;;;5073045;28;19915;-48
2022/01/14 07:22:33;;;;;;;;;;;5.80;99.90;;;;;;5070360;28;19943;-49
2022/01/14 07:24:59;;;;;;;;;;;5.80;99.90;;;;;;5068384;28;19920;-52
2022/01/14 07:27:27;;;;;;;;;;;5.80;99.90;;;;;;5063615;28;19929;-50
2022/01/14 07:29:53;;;;;;;;;;;5.90;99.90;;;;;;5067424;28;20375;-51
2022/01/14 07:32:21;;;;;;;;;;;5.90;99.90;;;;;;5064927;28;19927;-49
2022/01/14 07:34:47;;;;;;;;;;;5.90;99.90;;;;;;5047374;28;19916;-49
2022/01/14 07:37:13;;;;;;;;;;;5.90;99.90;;;;;;5101330;27;19920;-48
2022/01/14 07:39:39;;;;;;;;;;;5.90;99.90;;;;;;5049888;28;19924;-49
2022/01/14 07:42:05;;;;;;;;;;;5.90;99.90;;;;;;5070095;28;19927;-48
2022/01/14 07:44:31;;;;;;;;;;;5.90;99.90;;;;;;5073821;28;19928;-47
2022/01/14 07:46:57;;;;;;;;;;;5.90;99.90;;;;;;5085585;28;20412;-52
2022/01/14 07:49:23;;;;;;;;;;;5.90;99.90;;;;;;5064582;28;19915;-49
2022/01/14 07:51:49;;;;;;;;;;;5.90;99.90;;;;;;5065393;28;19968;-49
2022/01/14 07:54:14;;;;;;;;;;;5.90;99.90;;;;;;5068946;28;19959;-47
2022/01/14 07:56:45;;;;;;;;;;;5.90;99.90;;;;;;5087093;28;20319;-50
2022/01/14 07:59:25;;;;;;;;;;;5.90;99.90;;;;;;5096536;28;19924;-51
2022/01/14 08:01:55;;;;;;;;;;;5.90;99.90;;;;;;5066590;28;19997;-48
2022/01/14 08:04:21;;;;;;;;;;;5.90;99.90;;;;;;5071614;28;19973;-49
2022/01/14 08:06:50;;;;;;;;;;;6.00;99.90;;;;;;5053708;28;19923;-51
2022/01/14 08:09:16;;;;;;;;;;;6.00;99.90;;;;;;5067920;28;20448;-48
2022/01/14 08:11:42;;;;;;;;;;;6.00;99.90;;;;;;5066981;28;19920;-49
2022/01/14 08:14:08;;;;;;;;;;;6.00;99.90;;;;;;5101900;28;19924;-48
2022/01/14 08:16:34;;;;;;;;;;;6.00;99.90;;;;;;5069562;28;20111;-47
2022/01/14 08:19:00;;;;;;;;;;;6.00;99.90;;;;;;5068473;28;19920;-50
2022/01/14 08:21:26;;;;;;;;;;;6.00;99.90;;;;;;5085548;28;19916;-52
2022/01/14 08:23:51;;;;;;;;;;;6.00;99.90;;;;;;5100232;28;20361;-50
2022/01/14 08:26:17;;;;;;;;;;;6.10;99.90;;;;;;5089738;28;20538;-48
2022/01/14 08:28:44;;;;;;;;;;;6.10;99.90;;;;;;5090754;28;19923;-49
2022/01/14 08:31:10;;;;;;;;;;;6.10;99.90;;;;;;5070266;28;19916;-49
2022/01/14 08:33:36;;;;;;;;;;;6.10;99.90;;;;;;5071685;28;20341;-50
2022/01/14 08:36:02;;;;;;;;;;;6.10;99.90;;;;;;5066210;28;20362;-47
2022/01/14 08:38:28;;;;;;;;;;;6.10;99.90;;;;;;5074949;28;19920;-51
2022/01/14 08:41:03;;;;;;;;;;;6.10;99.90;;;;;;5089053;28;20007;-53
2022/01/14 08:43:29;;;;;;;;;;;6.20;99.90;;;;;;5086013;28;19973;-49
2022/01/14 08:45:58;;;;;;;;;;;6.20;99.90;;;;;;5023507;28;19924;-50
2022/01/14 08:48:26;;;;;;;;;;;6.20;99.90;;;;;;5089396;28;19989;-48
2022/01/14 08:50:52;;;;;;;;;;;6.20;99.90;;;;;;5069073;28;19924;-52
2022/01/14 08:53:18;;;;;;;;;;;6.30;99.90;;;;;;5072932;28;19980;-48
2022/01/14 08:55:46;;;;;;;;;;;6.30;99.90;;;;;;5093510;28;19924;-47
2022/01/14 08:58:12;;;;;;;;;;;6.30;99.90;;;;;;5088034;28;19928;-49
2022/01/14 09:00:38;;;;;;;;;;;6.30;99.90;;;;;;5054623;28;19935;-50
2022/01/14 09:03:04;;;;;;;;;;;6.40;99.90;;;;;;5066265;28;20235;-49
2022/01/14 09:05:31;;;;;;;;;;;6.40;99.90;;;;;;5077872;28;19973;-49
2022/01/14 09:07:57;;;;;;;;;;;6.40;99.90;;;;;;5088463;28;20279;-51
2022/01/14 09:10:23;;;;;;;;;;;6.50;99.90;;;;;;5056258;28;20350;-53
2022/01/14 09:13:01;;;;;;;;;;;6.50;99.90;;;;;;5099885;27;19920;-49
2022/01/14 09:15:27;;;;;;;;;;;6.50;99.90;;;;;;5056495;28;19929;-52
2022/01/14 09:17:52;;;;;;;;;;;6.50;99.90;;;;;;5067190;28;19915;-49
2022/01/14 09:20:19;;;;;;;;;;;6.60;99.90;;;;;;5085748;28;19923;-49
2022/01/14 09:22:48;;;;;;;;;;;6.60;99.90;;;;;;5068612;28;20006;-49
2022/01/14 09:25:17;;;;;;;;;;;6.70;99.90;;;;;;5069808;28;19924;-52
2022/01/14 09:27:42;;;;;;;;;;;6.70;99.90;;;;;;5050255;28;20476;-50
2022/01/14 09:30:08;;;;;;;;;;;6.70;99.90;;;;;;5049096;28;20006;-52
2022/01/14 09:32:37;;;;;;;;;;;6.70;99.90;;;;;;5044801;28;19924;-52
2022/01/14 09:35:05;;;;;;;;;;;6.70;99.90;;;;;;5039333;28;20184;-49
2022/01/14 09:37:32;;;;;;;;;;;6.80;99.90;;;;;;5046546;28;20492;-49
2022/01/14 09:39:58;;;;;;;;;;;6.80;99.90;;;;;;5063663;28;19917;-51
2022/01/14 09:42:24;;;;;;;;;;;6.80;99.90;;;;;;5047722;28;19936;-51
2022/01/14 09:44:50;;;;;;;;;;;6.80;99.90;;;;;;5028623;28;19916;-50
2022/01/14 09:47:17;;;;;;;;;;;6.80;99.90;;;;;;5063473;28;19962;-49
2022/01/14 09:49:43;;;;;;;;;;;6.90;99.90;;;;;;5077676;28;20274;-49
2022/01/14 09:52:10;;;;;;;;;;;6.90;99.90;;;;;;5044635;28;19920;-49
2022/01/14 09:54:37;;;;;;;;;;;6.90;99.90;;;;;;5042357;28;19938;-50
2022/01/14 09:57:02;;;;;;;;;;;6.90;99.90;;;;;;5077998;28;20083;-52
2022/01/14 09:59:28;;;;;;;;;;;7.00;99.90;;;;;;5041479;28;20574;-48
2022/01/14 10:01:54;;;;;;;;;;;7.00;99.90;;;;;;5027585;28;19974;-53
2022/01/14 10:04:21;;;;;;;;;;;7.00;99.90;;;;;;5071742;28;19928;-53
2022/01/14 10:06:47;;;;;;;;;;;7.00;99.90;;;;;;5061910;28;19966;-54
2022/01/14 10:09:13;;;;;;;;;;;7.00;99.90;;;;;;5058709;28;19917;-51
2022/01/14 10:11:40;;;;;;;;;;;7.00;99.90;;;;;;5032683;28;19917;-51
2022/01/14 10:14:11;;;;;;;;;;;7.00;99.90;;;;;;5037822;28;19959;-51
2022/01/14 10:16:40;;;;;;;;;;;6.90;99.90;;;;;;5047585;28;19924;-53
2022/01/14 10:22:32;;;;;;;;;;;7.00;99.90;;;;;;5050770;28;20320;-53
2022/01/14 10:25:06;;;;;;;;;;;7.00;99.90;;;;;;5051605;28;20258;-53
2022/01/14 10:27:33;;;;;;;;;;;7.00;99.90;;;;;;5068746;28;20057;-53
2022/01/14 10:30:11;;;;;;;;;;;7.00;99.90;;;;;;5069046;28;19925;-50
2022/01/14 10:32:38;;;;;;;;;;;7.00;99.90;;;;;;5066915;28;20367;-52
2022/01/14 10:35:07;;;;;;;;;;;7.00;99.90;;;;;;5067426;28;19928;-49
2022/01/14 10:37:34;;;;;;;;;;;7.10;99.90;;;;;;5064862;28;19916;-51
2022/01/14 10:40:00;;;;;;;;;;;7.10;99.90;;;;;;5067770;28;19927;-48
2022/01/14 10:42:27;;;;;;;;;;;7.10;99.90;;;;;;5072205;28;19924;-53
2022/01/14 10:44:53;;;;;;;;;;;7.10;99.90;;;;;;5051716;28;20429;-51
2022/01/14 10:47:21;;;;;;;;;;;7.10;99.90;;;;;;5049967;28;20279;-51
2022/01/14 10:49:47;;;;;;;;;;;7.20;99.90;;;;;;5083158;28;20015;-52
2022/01/14 10:52:14;;;;;;;;;;;7.20;99.90;;;;;;5069590;28;19916;-49
2022/01/14 10:54:41;;;;;;;;;;;7.20;99.90;;;;;;5071779;28;19916;-52
2022/01/14 10:57:18;;;;;;;;;;;7.30;99.90;;;;;;5051602;28;19920;-51
2022/01/14 10:59:46;;;;;;;;;;;7.20;99.90;;;;;;5066685;28;19995;-51
2022/01/14 11:02:30;;;;;;;;;;;7.30;99.90;;;;;;5033434;28;19931;-49
2022/01/14 11:05:15;;;;;;;;;;;7.30;99.90;;;;;;5054210;28;19935;-50
2022/01/14 11:07:42;;;;;;;;;;;7.30;99.90;;;;;;5049038;28;20397;-50
2022/01/14 11:10:16;;;;;;;;;;;7.30;99.90;;;;;;5051899;28;20061;-51
2022/01/14 11:12:43;;;;;;;;;;;7.30;99.90;;;;;;5055990;28;20027;-52
2022/01/14 11:15:10;;;;;;;;;;;7.30;99.90;;;;;;5052064;28;20018;-53
2022/01/14 11:17:51;;;;;;;;;;;7.30;99.90;;;;;;5033554;28;19925;-54
2022/01/14 11:20:23;;;;;;;;;;;7.40;99.90;;;;;;5054721;28;19923;-52
2022/01/14 11:25:39;;;;;;;;;;;7.40;99.90;;;;;;5062840;28;19921;-52
2022/01/14 11:28:05;;;;;;;;;;;7.40;99.90;;;;;;5036704;28;19928;-52
2022/01/14 11:30:38;;;;;;;;;;;7.50;99.90;;;;;;5067041;28;20014;-49
2022/01/14 11:33:04;;;;;;;;;;;7.40;99.90;;;;;;5067059;28;19943;-52
2022/01/14 11:35:31;;;;;;;;;;;7.40;99.90;;;;;;5065209;28;19923;-48
2022/01/14 11:38:16;;;;;;;;;;;7.40;99.90;;;;;;5039396;28;20358;-50
2022/01/14 11:40:49;;;;;;;;;;;7.40;99.90;;;;;;5052187;28;20861;-51
2022/01/14 11:43:33;;;;;;;;;;;7.50;99.90;;;;;;5052831;28;19931;-51
2022/01/14 11:45:59;;;;;;;;;;;7.50;99.90;;;;;;5049184;28;19932;-50
2022/01/14 11:48:37;;;;;;;;;;;7.50;99.90;;;;;;5065332;28;19916;-51
2022/01/14 11:51:04;;;;;;;;;;;7.50;99.90;;;;;;5068847;28;20012;-51
2022/01/14 11:53:37;;;;;;;;;;;7.50;99.90;;;;;;5030691;28;19920;-50
2022/01/14 11:56:22;;;;;;;;;;;7.60;99.90;;;;;;5031863;28;20012;-53
2022/01/14 11:58:47;;;;;;;;;;;7.60;99.90;;;;;;5067808;28;19963;-49
2022/01/14 12:01:43;;;;;;;;;;;7.50;99.90;;;;;;5038022;28;19916;-51
2022/01/14 12:04:09;;;;;;;;;;;7.50;99.90;;;;;;5042919;28;20415;-48
2022/01/14 12:06:55;;;;;;;;;;;7.60;99.90;;;;;;5035001;28;20015;-50
2022/01/14 12:09:22;;;;;;;;;;;7.50;99.90;;;;;;5059883;28;20310;-51
2022/01/14 12:12:06;;;;;;;;;;;7.50;99.90;;;;;;5049870;28;19916;-50
2022/01/14 12:14:43;;;;;;;;;;;7.50;99.90;;;;;;5064156;28;19928;-51
2022/01/14 12:17:13;;;;;;;;;;;7.50;99.90;;;;;;5066107;28;20389;-49
2022/01/14 12:19:39;;;;;;;;;;;7.50;99.90;;;;;;5049348;28;19924;-53
2022/01/14 12:22:05;;;;;;;;;;;7.60;99.90;;;;;;5072306;28;19923;-50
2022/01/14 12:24:32;;;;;;;;;;;7.60;99.90;;;;;;5065087;28;19924;-52
2022/01/14 12:27:23;;;;;;;;;;;7.60;99.90;;;;;;5033505;28;19923;-49
2022/01/14 12:30:09;;;;;;;;;;;7.50;99.90;;;;;;5046946;28;20351;-52
2022/01/14 12:32:39;;;;;;;;;;;7.60;99.90;;;;;;5064789;28;19920;-48
2022/01/14 12:35:08;;;;;;;;;;;7.50;99.90;;;;;;5031713;28;20339;-52
2022/01/14 12:37:39;;;;;;;;;;;7.50;99.90;;;;;;5054972;28;19963;-51
2022/01/14 12:40:15;;;;;;;;;;;7.50;99.90;;;;;;5066473;28;19927;-51
2022/01/14 12:42:53;;;;;;;;;;;7.30;99.90;;;;;;5049202;28;20027;-50
2022/01/14 12:45:26;;;;;;;;;;;7.50;99.90;;;;;;5069799;28;19993;-51
2022/01/14 12:47:59;;;;;;;;;;;7.50;99.90;;;;;;5035050;28;19931;-48
2022/01/14 12:50:26;;;;;;;;;;;7.50;99.90;;;;;;5053420;28;19920;-52
2022/01/14 12:52:51;;;;;;;;;;;7.50;99.90;;;;;;5048411;28;20014;-51
2022/01/14 12:55:19;;;;;;;;;;;7.50;99.90;;;;;;5051245;28;20347;-50
2022/01/14 12:57:45;;;;;;;;;;;7.50;99.90;;;;;;5069037;28;19920;-51
2022/01/14 13:00:13;;;;;;;;;;;7.50;99.90;;;;;;5050733;28;21192;-51
2022/01/14 13:02:39;;;;;;;;;;;7.50;99.90;;;;;;5046141;28;19970;-52
2022/01/14 13:05:14;;;;;;;;;;;7.50;99.90;;;;;;5066773;28;19920;-49
2022/01/14 13:07:41;;;;;;;;;;;7.60;99.90;;;;;;5050898;28;19930;-49
2022/01/14 13:10:17;;;;;;;;;;;7.60;99.90;;;;;;5037079;28;19923;-52
2022/01/14 13:12:44;;;;;;;;;;;7.60;99.90;;;;;;5048027;28;19916;-52
2022/01/14 13:15:23;;;;;;;;;;;7.60;99.90;;;;;;5049783;28;20004;-51
2022/01/14 13:18:04;;;;;;;;;;;7.60;99.90;;;;;;5048871;28;19924;-48
2022/01/14 13:20:31;;;;;;;;;;;7.70;99.90;;;;;;5048308;28;19963;-52
2022/01/14 13:22:57;;;;;;;;;;;7.60;99.90;;;;;;5065960;28;20049;-49
2022/01/14 13:25:24;;;;;;;;;;;7.70;99.90;;;;;;5039824;28;19955;-50
2022/01/14 13:27:54;;;;;;;;;;;7.70;99.90;;;;;;5071344;28;19942;-51
2022/01/14 13:30:29;;;;;;;;;;;7.70;99.90;;;;;;5084076;28;19924;-52
2022/01/14 13:32:56;;;;;;;;;;;7.70;99.90;;;;;;5056536;28;19927;-51
2022/01/14 13:35:26;;;;;;;;;;;7.70;99.90;;;;;;5058226;28;19956;-51
2022/01/14 13:37:55;;;;;;;;;;;7.70;99.90;;;;;;5096649;28;23617;-52
2022/01/14 13:40:31;;;;;;;;;;;7.70;99.90;;;;;;5084497;28;20318;-49
2022/01/14 13:43:03;;;;;;;;;;;7.70;99.90;;;;;;5070152;28;19920;-52
2022/01/14 13:45:29;;;;;;;;;;;7.70;99.90;;;;;;5072027;28;19959;-49
2022/01/14 13:48:09;;;;;;;;;;;7.70;99.90;;;;;;5073169;28;19973;-51
2022/01/14 13:50:39;;;;;;;;;;;7.70;99.90;;;;;;5085133;28;19923;-52
2022/01/14 13:53:05;;;;;;;;;;;7.70;99.90;;;;;;5067412;28;19925;-50
2022/01/14 13:55:41;;;;;;;;;;;7.60;99.90;;;;;;5088063;28;19916;-49
2022/01/14 13:58:15;;;;;;;;;;;7.60;99.90;;;;;;5070878;28;19966;-49
2022/01/14 14:00:42;;;;;;;;;;;7.60;99.90;;;;;;5084781;28;20350;-51
2022/01/14 14:03:33;;;;;;;;;;;7.60;99.90;;;;;;5065770;28;20022;-50
2022/01/14 14:06:24;;;;;;;;;;;7.60;99.90;;;;;;5085872;28;20406;-52
2022/01/14 14:16:47;;;;;;;;;;;7.60;99.90;;;;;;5067949;28;19935;-52
2022/01/14 14:19:13;;;;;;;;;;;7.60;99.90;;;;;;5067294;28;19919;-49
2022/01/14 14:21:41;;;;;;;;;;;7.60;99.90;;;;;;5053123;28;19916;-52
2022/01/14 14:24:09;;;;;;;;;;;7.50;99.90;;;;;;5067642;28;20300;-50
2022/01/14 14:26:35;;;;;;;;;;;7.50;99.90;;;;;;5055778;28;19934;-51
2022/01/14 14:29:19;;;;;;;;;;;7.60;99.90;;;;;;5085849;28;19916;-52
2022/01/14 14:31:45;;;;;;;;;;;7.50;99.90;;;;;;5068730;28;19930;-52
2022/01/14 14:34:11;;;;;;;;;;;7.50;99.90;;;;;;5071314;28;19928;-52
2022/01/14 14:36:39;;;;;;;;;;;7.50;99.90;;;;;;5052501;28;19967;-52
2022/01/14 14:39:05;;;;;;;;;;;7.50;99.90;;;;;;5085350;28;20341;-50
2022/01/14 14:41:31;;;;;;;;;;;7.50;99.90;;;;;;5086629;28;19998;-52
2022/01/14 14:43:57;;;;;;;;;;;7.50;99.90;;;;;;5068987;28;19990;-50
2022/01/14 14:46:23;;;;;;;;;;;7.50;99.90;;;;;;5073053;28;19939;-50
2022/01/14 14:48:49;;;;;;;;;;;7.50;99.90;;;;;;5085415;28;19924;-51
2022/01/14 14:51:18;;;;;;;;;;;7.50;99.90;;;;;;5071348;28;19924;-49
2022/01/14 14:53:44;;;;;;;;;;;7.50;99.90;;;;;;5084450;28;19916;-53
2022/01/14 14:56:10;;;;;;;;;;;7.50;99.90;;;;;;5074012;28;20023;-53
2022/01/14 14:58:39;;;;;;;;;;;7.50;99.90;;;;;;5062333;28;20018;-52
2022/01/14 15:01:07;;;;;;;;;;;7.50;99.90;;;;;;5090234;28;19927;-52
2022/01/14 15:03:35;;;;;;;;;;;7.40;99.90;;;;;;5056832;28;19967;-51
2022/01/14 15:06:01;;;;;;;;;;;7.50;99.90;;;;;;5089863;28;19920;-51
2022/01/14 15:08:26;;;;;;;;;;;7.40;99.90;;;;;;5076059;28;19916;-52
2022/01/14 15:10:54;;;;;;;;;;;7.40;99.90;;;;;;5090665;28;20422;-53
2022/01/14 15:13:19;;;;;;;;;;;7.40;99.90;;;;;;5087051;28;19926;-52
2022/01/14 15:16:11;;;;;;;;;;;7.40;99.90;;;;;;5074271;28;19917;-52
2022/01/14 15:18:34;;;;;;;;;;;7.40;99.90;;;;;;5091296;28;19965;-49